sensor_id;sensor_type;location;lat;lon;timestamp;P1;durP1;ratioP1;P2;durP2;ratioP2
45318;SDS011;31057;48.498;32.260;2024-03-22T00:01:54;270.63;;;53.13;;
45318;SDS011;31057;48.498;32.260;2024-03-22T00:03:55;240.02;;;52.28;;
45318;SDS011;31057;48.498;32.260;2024-03-22T00:05:56;261.17;;;58.30;;
45318;SDS011;31057;48.498;32.260;2024-03-22T00:07:58;230.30;;;51.28;;
45318;SDS011;31057;48.498;32.260;2024-03-22T00:09:59;225.25;;;51.35;;
45318;SDS011;31057;48.498;32.260;2024-03-22T00:11:59;440.67;;;66.03;;
45318;SDS011;31057;48.498;32.260;2024-03-22T00:14:01;207.52;;;54.83;;
45318;SDS011;31057;48.498;32.260;2024-03-22T00:16:02;279.70;;;59.10;;
45318;SDS011;31057;48.498;32.260;2024-03-22T00:18:04;259.70;;;54.13;;
45318;SDS011;31057;48.498;32.260;2024-03-22T00:20:05;218.13;;;51.87;;
45318;SDS011;31057;48.498;32.260;2024-03-22T00:22:06;277.35;;;60.70;;
45318;SDS011;31057;48.498;32.260;2024-03-22T00:24:07;201.85;;;54.08;;
45318;SDS011;31057;48.498;32.260;2024-03-22T00:26:08;245.30;;;56.83;;
45318;SDS011;31057;48.498;32.260;2024-03-22T00:28:09;245.38;;;56.72;;
45318;SDS011;31057;48.498;32.260;2024-03-22T00:30:10;270.25;;;59.05;;
45318;SDS011;31057;48.498;32.260;2024-03-22T00:32:11;204.20;;;54.95;;
45318;SDS011;31057;48.498;32.260;2024-03-22T00:34:12;455.27;;;69.63;;
45318;SDS011;31057;48.498;32.260;2024-03-22T00:36:13;383.52;;;62.78;;
45318;SDS011;31057;48.498;32.260;2024-03-22T00:38:14;279.63;;;56.47;;
45318;SDS011;31057;48.498;32.260;2024-03-22T00:40:15;372.90;;;62.97;;
45318;SDS011;31057;48.498;32.260;2024-03-22T00:42:16;380.20;;;61.92;;
45318;SDS011;31057;48.498;32.260;2024-03-22T00:44:17;250.13;;;53.58;;
45318;SDS011;31057;48.498;32.260;2024-03-22T00:46:18;230.32;;;53.92;;
45318;SDS011;31057;48.498;32.260;2024-03-22T00:48:19;297.83;;;56.55;;
45318;SDS011;31057;48.498;32.260;2024-03-22T00:50:20;234.55;;;51.10;;
45318;SDS011;31057;48.498;32.260;2024-03-22T00:52:20;402.80;;;63.70;;
45318;SDS011;31057;48.498;32.260;2024-03-22T00:54:22;324.30;;;62.15;;
45318;SDS011;31057;48.498;32.260;2024-03-22T00:56:23;370.20;;;61.27;;
45318;SDS011;31057;48.498;32.260;2024-03-22T00:58:24;271.02;;;55.05;;
45318;SDS011;31057;48.498;32.260;2024-03-22T01:02:26;239.57;;;54.25;;
45318;SDS011;31057;48.498;32.260;2024-03-22T01:04:27;247.95;;;53.90;;
45318;SDS011;31057;48.498;32.260;2024-03-22T01:06:28;340.88;;;57.33;;
45318;SDS011;31057;48.498;32.260;2024-03-22T01:08:29;298.48;;;52.58;;
45318;SDS011;31057;48.498;32.260;2024-03-22T01:10:32;315.70;;;54.80;;
45318;SDS011;31057;48.498;32.260;2024-03-22T01:12:33;193.15;;;49.67;;
45318;SDS011;31057;48.498;32.260;2024-03-22T01:14:34;281.08;;;55.58;;
45318;SDS011;31057;48.498;32.260;2024-03-22T01:16:35;248.90;;;51.15;;
45318;SDS011;31057;48.498;32.260;2024-03-22T01:18:36;261.42;;;50.95;;
45318;SDS011;31057;48.498;32.260;2024-03-22T01:20:38;272.70;;;52.30;;
45318;SDS011;31057;48.498;32.260;2024-03-22T01:22:39;305.35;;;55.15;;
45318;SDS011;31057;48.498;32.260;2024-03-22T01:24:40;396.00;;;59.20;;
45318;SDS011;31057;48.498;32.260;2024-03-22T01:26:41;226.52;;;49.50;;
45318;SDS011;31057;48.498;32.260;2024-03-22T01:28:42;330.67;;;59.03;;
45318;SDS011;31057;48.498;32.260;2024-03-22T01:30:43;136.48;;;43.72;;
45318;SDS011;31057;48.498;32.260;2024-03-22T01:32:44;283.58;;;51.30;;
45318;SDS011;31057;48.498;32.260;2024-03-22T01:34:45;228.90;;;48.75;;
45318;SDS011;31057;48.498;32.260;2024-03-22T01:36:46;257.33;;;50.33;;
45318;SDS011;31057;48.498;32.260;2024-03-22T01:38:47;312.98;;;54.35;;
45318;SDS011;31057;48.498;32.260;2024-03-22T01:40:48;214.77;;;52.03;;
45318;SDS011;31057;48.498;32.260;2024-03-22T01:42:52;158.75;;;44.10;;
45318;SDS011;31057;48.498;32.260;2024-03-22T01:44:53;220.20;;;48.47;;
45318;SDS011;31057;48.498;32.260;2024-03-22T01:46:54;356.30;;;52.65;;
45318;SDS011;31057;48.498;32.260;2024-03-22T01:48:56;352.73;;;53.38;;
45318;SDS011;31057;48.498;32.260;2024-03-22T01:50:57;129.93;;;43.70;;
45318;SDS011;31057;48.498;32.260;2024-03-22T01:52:58;241.70;;;48.10;;
45318;SDS011;31057;48.498;32.260;2024-03-22T01:54:59;130.48;;;44.75;;
45318;SDS011;31057;48.498;32.260;2024-03-22T01:57:00;196.45;;;45.55;;
45318;SDS011;31057;48.498;32.260;2024-03-22T01:59:03;178.20;;;46.88;;
45318;SDS011;31057;48.498;32.260;2024-03-22T02:01:05;279.50;;;51.55;;
45318;SDS011;31057;48.498;32.260;2024-03-22T02:03:06;255.88;;;50.10;;
45318;SDS011;31057;48.498;32.260;2024-03-22T02:05:16;211.77;;;48.40;;
45318;SDS011;31057;48.498;32.260;2024-03-22T02:07:21;290.08;;;54.75;;
45318;SDS011;31057;48.498;32.260;2024-03-22T02:09:22;174.27;;;47.95;;
45318;SDS011;31057;48.498;32.260;2024-03-22T02:11:23;171.60;;;47.65;;
45318;SDS011;31057;48.498;32.260;2024-03-22T02:13:25;289.58;;;52.97;;
45318;SDS011;31057;48.498;32.260;2024-03-22T02:15:26;255.68;;;51.63;;
45318;SDS011;31057;48.498;32.260;2024-03-22T02:17:27;246.80;;;55.20;;
45318;SDS011;31057;48.498;32.260;2024-03-22T02:19:28;362.95;;;55.30;;
45318;SDS011;31057;48.498;32.260;2024-03-22T02:21:29;208.00;;;49.22;;
45318;SDS011;31057;48.498;32.260;2024-03-22T02:25:34;235.07;;;51.40;;
45318;SDS011;31057;48.498;32.260;2024-03-22T02:27:35;312.02;;;58.08;;
45318;SDS011;31057;48.498;32.260;2024-03-22T02:29:36;356.92;;;58.92;;
45318;SDS011;31057;48.498;32.260;2024-03-22T02:31:37;340.50;;;57.33;;
45318;SDS011;31057;48.498;32.260;2024-03-22T02:33:38;349.23;;;59.47;;
45318;SDS011;31057;48.498;32.260;2024-03-22T02:35:39;294.48;;;56.20;;
45318;SDS011;31057;48.498;32.260;2024-03-22T02:37:39;406.60;;;58.78;;
45318;SDS011;31057;48.498;32.260;2024-03-22T02:39:40;473.45;;;72.10;;
45318;SDS011;31057;48.498;32.260;2024-03-22T02:41:41;277.93;;;55.00;;
45318;SDS011;31057;48.498;32.260;2024-03-22T02:43:42;316.10;;;56.63;;
45318;SDS011;31057;48.498;32.260;2024-03-22T02:45:43;185.57;;;51.60;;
45318;SDS011;31057;48.498;32.260;2024-03-22T02:47:44;221.53;;;51.97;;
45318;SDS011;31057;48.498;32.260;2024-03-22T02:49:45;344.23;;;60.53;;
45318;SDS011;31057;48.498;32.260;2024-03-22T02:51:46;293.75;;;56.95;;
45318;SDS011;31057;48.498;32.260;2024-03-22T02:53:47;209.57;;;51.90;;
45318;SDS011;31057;48.498;32.260;2024-03-22T02:55:48;201.73;;;52.30;;
45318;SDS011;31057;48.498;32.260;2024-03-22T02:57:49;236.38;;;54.10;;
45318;SDS011;31057;48.498;32.260;2024-03-22T02:59:50;253.80;;;52.60;;
45318;SDS011;31057;48.498;32.260;2024-03-22T03:01:51;201.70;;;51.67;;
45318;SDS011;31057;48.498;32.260;2024-03-22T03:03:52;395.45;;;64.07;;
45318;SDS011;31057;48.498;32.260;2024-03-22T03:05:53;175.70;;;50.65;;
45318;SDS011;31057;48.498;32.260;2024-03-22T03:07:54;158.43;;;48.00;;
45318;SDS011;31057;48.498;32.260;2024-03-22T03:09:55;159.37;;;47.73;;
45318;SDS011;31057;48.498;32.260;2024-03-22T03:11:56;160.23;;;46.95;;
45318;SDS011;31057;48.498;32.260;2024-03-22T03:13:57;257.48;;;51.83;;
45318;SDS011;31057;48.498;32.260;2024-03-22T03:15:58;252.20;;;52.63;;
45318;SDS011;31057;48.498;32.260;2024-03-22T03:17:59;165.05;;;47.20;;
45318;SDS011;31057;48.498;32.260;2024-03-22T03:20:00;229.55;;;49.92;;
45318;SDS011;31057;48.498;32.260;2024-03-22T03:28:45;145.73;;;47.78;;
45318;SDS011;31057;48.498;32.260;2024-03-22T03:30:46;161.77;;;43.20;;
45318;SDS011;31057;48.498;32.260;2024-03-22T03:32:47;157.73;;;44.35;;
45318;SDS011;31057;48.498;32.260;2024-03-22T03:34:48;136.45;;;43.67;;
45318;SDS011;31057;48.498;32.260;2024-03-22T03:36:49;87.82;;;41.20;;
45318;SDS011;31057;48.498;32.260;2024-03-22T03:38:50;82.70;;;42.30;;
45318;SDS011;31057;48.498;32.260;2024-03-22T03:43:42;123.47;;;41.92;;
45318;SDS011;31057;48.498;32.260;2024-03-22T03:45:44;109.70;;;42.25;;
45318;SDS011;31057;48.498;32.260;2024-03-22T03:47:45;106.55;;;41.45;;
45318;SDS011;31057;48.498;32.260;2024-03-22T03:49:46;158.53;;;45.33;;
45318;SDS011;31057;48.498;32.260;2024-03-22T03:51:47;151.15;;;43.28;;
45318;SDS011;31057;48.498;32.260;2024-03-22T03:53:48;90.45;;;40.03;;
45318;SDS011;31057;48.498;32.260;2024-03-22T03:55:49;153.10;;;44.70;;
45318;SDS011;31057;48.498;32.260;2024-03-22T03:57:50;126.05;;;42.47;;
45318;SDS011;31057;48.498;32.260;2024-03-22T03:59:51;128.95;;;42.40;;
45318;SDS011;31057;48.498;32.260;2024-03-22T04:01:52;120.55;;;43.75;;
45318;SDS011;31057;48.498;32.260;2024-03-22T04:03:53;105.30;;;39.78;;
45318;SDS011;31057;48.498;32.260;2024-03-22T04:05:57;64.10;;;40.15;;
45318;SDS011;31057;48.498;32.260;2024-03-22T04:07:58;65.50;;;39.22;;
45318;SDS011;31057;48.498;32.260;2024-03-22T04:09:59;107.32;;;38.53;;
45318;SDS011;31057;48.498;32.260;2024-03-22T04:12:03;114.85;;;41.92;;
45318;SDS011;31057;48.498;32.260;2024-03-22T04:14:04;55.58;;;38.65;;
45318;SDS011;31057;48.498;32.260;2024-03-22T04:16:06;58.30;;;39.92;;
45318;SDS011;31057;48.498;32.260;2024-03-22T04:18:07;57.35;;;40.63;;
45318;SDS011;31057;48.498;32.260;2024-03-22T04:20:08;388.55;;;78.32;;
45318;SDS011;31057;48.498;32.260;2024-03-22T04:22:09;104.53;;;49.33;;
45318;SDS011;31057;48.498;32.260;2024-03-22T04:24:10;156.00;;;62.95;;
45318;SDS011;31057;48.498;32.260;2024-03-22T04:26:11;62.90;;;41.25;;
45318;SDS011;31057;48.498;32.260;2024-03-22T04:28:12;62.95;;;44.58;;
45318;SDS011;31057;48.498;32.260;2024-03-22T04:30:13;62.58;;;43.30;;
45318;SDS011;31057;48.498;32.260;2024-03-22T04:32:14;65.07;;;42.92;;
45318;SDS011;31057;48.498;32.260;2024-03-22T04:34:15;68.88;;;46.15;;
45318;SDS011;31057;48.498;32.260;2024-03-22T04:36:16;74.57;;;52.15;;
45318;SDS011;31057;48.498;32.260;2024-03-22T04:38:17;86.20;;;53.85;;
45318;SDS011;31057;48.498;32.260;2024-03-22T04:40:18;83.82;;;53.58;;
45318;SDS011;31057;48.498;32.260;2024-03-22T04:42:19;64.15;;;44.78;;
45318;SDS011;31057;48.498;32.260;2024-03-22T04:44:20;74.68;;;51.13;;
45318;SDS011;31057;48.498;32.260;2024-03-22T04:46:21;80.70;;;54.20;;
45318;SDS011;31057;48.498;32.260;2024-03-22T04:48:22;79.53;;;51.47;;
45318;SDS011;31057;48.498;32.260;2024-03-22T04:50:23;67.30;;;46.67;;
45318;SDS011;31057;48.498;32.260;2024-03-22T04:52:24;52.45;;;39.42;;
45318;SDS011;31057;48.498;32.260;2024-03-22T04:54:25;59.22;;;42.70;;
45318;SDS011;31057;48.498;32.260;2024-03-22T04:56:26;57.45;;;41.75;;
45318;SDS011;31057;48.498;32.260;2024-03-22T04:58:27;62.75;;;44.00;;
45318;SDS011;31057;48.498;32.260;2024-03-22T05:00:28;71.90;;;48.70;;
45318;SDS011;31057;48.498;32.260;2024-03-22T05:02:29;65.93;;;44.03;;
45318;SDS011;31057;48.498;32.260;2024-03-22T05:04:30;71.63;;;49.28;;
45318;SDS011;31057;48.498;32.260;2024-03-22T05:06:31;78.68;;;52.28;;
45318;SDS011;31057;48.498;32.260;2024-03-22T05:08:32;80.20;;;54.92;;
45318;SDS011;31057;48.498;32.260;2024-03-22T05:10:33;69.60;;;50.47;;
45318;SDS011;31057;48.498;32.260;2024-03-22T05:12:35;68.35;;;49.85;;
45318;SDS011;31057;48.498;32.260;2024-03-22T05:14:36;77.20;;;53.83;;
45318;SDS011;31057;48.498;32.260;2024-03-22T05:16:37;78.72;;;50.53;;
45318;SDS011;31057;48.498;32.260;2024-03-22T05:18:38;76.70;;;51.13;;
45318;SDS011;31057;48.498;32.260;2024-03-22T05:20:40;71.93;;;49.35;;
45318;SDS011;31057;48.498;32.260;2024-03-22T05:22:41;79.87;;;52.20;;
45318;SDS011;31057;48.498;32.260;2024-03-22T05:24:42;73.70;;;49.28;;
45318;SDS011;31057;48.498;32.260;2024-03-22T05:26:43;72.47;;;47.25;;
45318;SDS011;31057;48.498;32.260;2024-03-22T05:28:44;78.50;;;50.97;;
45318;SDS011;31057;48.498;32.260;2024-03-22T05:30:45;80.90;;;51.17;;
45318;SDS011;31057;48.498;32.260;2024-03-22T05:32:47;81.88;;;48.85;;
45318;SDS011;31057;48.498;32.260;2024-03-22T05:34:50;76.00;;;50.42;;
45318;SDS011;31057;48.498;32.260;2024-03-22T05:36:51;79.07;;;49.65;;
45318;SDS011;31057;48.498;32.260;2024-03-22T05:38:52;77.85;;;51.25;;
45318;SDS011;31057;48.498;32.260;2024-03-22T05:40:53;81.65;;;54.67;;
45318;SDS011;31057;48.498;32.260;2024-03-22T05:42:54;87.45;;;57.15;;
45318;SDS011;31057;48.498;32.260;2024-03-22T05:44:55;97.93;;;53.40;;
45318;SDS011;31057;48.498;32.260;2024-03-22T05:46:56;106.38;;;58.45;;
45318;SDS011;31057;48.498;32.260;2024-03-22T05:48:57;100.32;;;56.97;;
45318;SDS011;31057;48.498;32.260;2024-03-22T05:50:59;90.37;;;57.43;;
45318;SDS011;31057;48.498;32.260;2024-03-22T05:52:59;87.15;;;53.17;;
45318;SDS011;31057;48.498;32.260;2024-03-22T05:55:00;77.95;;;50.22;;
45318;SDS011;31057;48.498;32.260;2024-03-22T05:57:02;86.72;;;54.03;;
45318;SDS011;31057;48.498;32.260;2024-03-22T05:59:03;89.75;;;55.03;;
45318;SDS011;31057;48.498;32.260;2024-03-22T06:01:04;100.20;;;60.50;;
45318;SDS011;31057;48.498;32.260;2024-03-22T08:13:54;73.72;;;47.22;;
45318;SDS011;31057;48.498;32.260;2024-03-22T08:16:02;69.43;;;43.92;;
45318;SDS011;31057;48.498;32.260;2024-03-22T08:18:04;65.78;;;41.80;;
45318;SDS011;31057;48.498;32.260;2024-03-22T08:20:05;65.40;;;41.13;;
45318;SDS011;31057;48.498;32.260;2024-03-22T08:22:06;56.67;;;36.72;;
45318;SDS011;31057;48.498;32.260;2024-03-22T08:24:07;58.63;;;39.83;;
45318;SDS011;31057;48.498;32.260;2024-03-22T08:26:08;61.83;;;39.95;;
45318;SDS011;31057;48.498;32.260;2024-03-22T08:28:09;61.28;;;39.97;;
45318;SDS011;31057;48.498;32.260;2024-03-22T08:30:10;59.58;;;40.22;;
45318;SDS011;31057;48.498;32.260;2024-03-22T08:32:12;73.65;;;40.55;;
45318;SDS011;31057;48.498;32.260;2024-03-22T08:34:13;63.20;;;38.58;;
45318;SDS011;31057;48.498;32.260;2024-03-22T08:36:14;54.22;;;35.47;;
45318;SDS011;31057;48.498;32.260;2024-03-22T08:38:15;61.85;;;35.83;;
45318;SDS011;31057;48.498;32.260;2024-03-22T08:42:18;48.30;;;27.50;;
45318;SDS011;31057;48.498;32.260;2024-03-22T08:44:19;45.10;;;29.85;;
45318;SDS011;31057;48.498;32.260;2024-03-22T08:46:20;44.05;;;29.30;;
45318;SDS011;31057;48.498;32.260;2024-03-22T08:48:21;43.55;;;28.05;;
45318;SDS011;31057;48.498;32.260;2024-03-22T08:50:22;45.65;;;26.70;;
45318;SDS011;31057;48.498;32.260;2024-03-22T08:52:23;40.13;;;26.80;;
45318;SDS011;31057;48.498;32.260;2024-03-22T08:54:24;39.60;;;24.73;;
45318;SDS011;31057;48.498;32.260;2024-03-22T08:56:25;36.53;;;25.83;;
45318;SDS011;31057;48.498;32.260;2024-03-22T08:58:27;40.53;;;25.80;;
45318;SDS011;31057;48.498;32.260;2024-03-22T09:00:28;45.42;;;26.75;;
45318;SDS011;31057;48.498;32.260;2024-03-22T09:02:29;40.42;;;26.65;;
45318;SDS011;31057;48.498;32.260;2024-03-22T09:04:30;41.85;;;27.40;;
45318;SDS011;31057;48.498;32.260;2024-03-22T09:06:31;40.88;;;26.75;;
45318;SDS011;31057;48.498;32.260;2024-03-22T09:08:32;44.25;;;26.85;;
45318;SDS011;31057;48.498;32.260;2024-03-22T09:10:34;40.28;;;24.65;;
45318;SDS011;31057;48.498;32.260;2024-03-22T09:12:35;39.13;;;26.10;;
45318;SDS011;31057;48.498;32.260;2024-03-22T09:14:36;41.97;;;26.15;;
45318;SDS011;31057;48.498;32.260;2024-03-22T09:16:37;38.30;;;23.92;;
45318;SDS011;31057;48.498;32.260;2024-03-22T09:18:38;36.28;;;25.30;;
45318;SDS011;31057;48.498;32.260;2024-03-22T09:20:39;33.20;;;23.40;;
45318;SDS011;31057;48.498;32.260;2024-03-22T09:22:40;40.65;;;24.77;;
45318;SDS011;31057;48.498;32.260;2024-03-22T09:24:41;39.72;;;24.38;;
45318;SDS011;31057;48.498;32.260;2024-03-22T09:26:41;38.13;;;27.08;;
45318;SDS011;31057;48.498;32.260;2024-03-22T09:28:45;40.17;;;28.35;;
45318;SDS011;31057;48.498;32.260;2024-03-22T09:30:46;42.47;;;26.63;;
45318;SDS011;31057;48.498;32.260;2024-03-22T09:32:48;40.10;;;28.02;;
45318;SDS011;31057;48.498;32.260;2024-03-22T09:34:49;36.28;;;22.45;;
45318;SDS011;31057;48.498;32.260;2024-03-22T09:36:53;34.42;;;22.63;;
45318;SDS011;31057;48.498;32.260;2024-03-22T09:38:53;38.13;;;25.30;;
45318;SDS011;31057;48.498;32.260;2024-03-22T09:40:55;35.95;;;22.73;;
45318;SDS011;31057;48.498;32.260;2024-03-22T09:42:58;36.80;;;23.85;;
45318;SDS011;31057;48.498;32.260;2024-03-22T09:45:06;41.22;;;24.75;;
45318;SDS011;31057;48.498;32.260;2024-03-22T09:47:09;35.88;;;23.73;;
45318;SDS011;31057;48.498;32.260;2024-03-22T09:49:10;36.38;;;24.70;;
45318;SDS011;31057;48.498;32.260;2024-03-22T09:51:12;39.33;;;22.77;;
45318;SDS011;31057;48.498;32.260;2024-03-22T09:53:19;37.30;;;21.83;;
45318;SDS011;31057;48.498;32.260;2024-03-22T09:55:24;31.92;;;20.25;;
45318;SDS011;31057;48.498;32.260;2024-03-22T09:57:25;29.42;;;19.55;;
45318;SDS011;31057;48.498;32.260;2024-03-22T09:59:27;34.45;;;20.63;;
45318;SDS011;31057;48.498;32.260;2024-03-22T10:01:28;32.13;;;21.27;;
45318;SDS011;31057;48.498;32.260;2024-03-22T10:03:29;36.83;;;22.73;;
45318;SDS011;31057;48.498;32.260;2024-03-22T10:05:31;28.15;;;19.92;;
45318;SDS011;31057;48.498;32.260;2024-03-22T10:07:32;30.92;;;19.88;;
45318;SDS011;31057;48.498;32.260;2024-03-22T10:09:33;41.42;;;27.00;;
45318;SDS011;31057;48.498;32.260;2024-03-22T10:11:35;34.40;;;21.17;;
45318;SDS011;31057;48.498;32.260;2024-03-22T10:13:36;34.13;;;20.33;;
45318;SDS011;31057;48.498;32.260;2024-03-22T10:15:37;23.10;;;17.77;;
45318;SDS011;31057;48.498;32.260;2024-03-22T10:17:38;27.88;;;19.63;;
45318;SDS011;31057;48.498;32.260;2024-03-22T10:19:40;28.33;;;18.60;;
45318;SDS011;31057;48.498;32.260;2024-03-22T10:21:41;25.08;;;18.38;;
45318;SDS011;31057;48.498;32.260;2024-03-22T10:23:42;29.27;;;19.23;;
45318;SDS011;31057;48.498;32.260;2024-03-22T10:25:44;28.83;;;19.55;;
45318;SDS011;31057;48.498;32.260;2024-03-22T10:27:45;26.58;;;17.73;;
45318;SDS011;31057;48.498;32.260;2024-03-22T10:29:48;27.08;;;19.60;;
45318;SDS011;31057;48.498;32.260;2024-03-22T10:31:50;34.33;;;20.27;;
45318;SDS011;31057;48.498;32.260;2024-03-22T10:33:52;26.85;;;18.35;;
45318;SDS011;31057;48.498;32.260;2024-03-22T10:35:55;31.60;;;19.13;;
45318;SDS011;31057;48.498;32.260;2024-03-22T10:37:57;30.23;;;20.27;;
45318;SDS011;31057;48.498;32.260;2024-03-22T10:39:58;27.73;;;17.58;;
45318;SDS011;31057;48.498;32.260;2024-03-22T10:42:01;30.40;;;18.60;;
45318;SDS011;31057;48.498;32.260;2024-03-22T10:44:02;29.15;;;18.40;;
45318;SDS011;31057;48.498;32.260;2024-03-22T10:46:05;23.52;;;17.30;;
45318;SDS011;31057;48.498;32.260;2024-03-22T10:48:10;24.42;;;17.40;;
45318;SDS011;31057;48.498;32.260;2024-03-22T10:50:12;20.23;;;15.75;;
45318;SDS011;31057;48.498;32.260;2024-03-22T10:52:14;23.02;;;15.18;;
45318;SDS011;31057;48.498;32.260;2024-03-22T10:54:17;23.23;;;16.98;;
45318;SDS011;31057;48.498;32.260;2024-03-22T10:56:20;20.33;;;14.75;;
45318;SDS011;31057;48.498;32.260;2024-03-22T10:58:24;18.65;;;12.23;;
45318;SDS011;31057;48.498;32.260;2024-03-22T11:00:34;20.30;;;14.10;;
45318;SDS011;31057;48.498;32.260;2024-03-22T11:02:37;20.80;;;12.55;;
45318;SDS011;31057;48.498;32.260;2024-03-22T11:04:38;19.45;;;12.10;;
45318;SDS011;31057;48.498;32.260;2024-03-22T11:06:39;15.48;;;10.05;;
45318;SDS011;31057;48.498;32.260;2024-03-22T11:08:40;19.15;;;10.65;;
45318;SDS011;31057;48.498;32.260;2024-03-22T11:10:41;16.97;;;10.70;;
45318;SDS011;31057;48.498;32.260;2024-03-22T11:12:45;18.23;;;10.73;;
45318;SDS011;31057;48.498;32.260;2024-03-22T11:14:46;17.13;;;10.63;;
45318;SDS011;31057;48.498;32.260;2024-03-22T11:16:48;16.17;;;10.52;;
45318;SDS011;31057;48.498;32.260;2024-03-22T11:18:48;11.88;;;8.93;;
45318;SDS011;31057;48.498;32.260;2024-03-22T11:20:49;14.93;;;9.57;;
45318;SDS011;31057;48.498;32.260;2024-03-22T11:22:51;12.65;;;9.70;;
45318;SDS011;31057;48.498;32.260;2024-03-22T11:24:52;14.55;;;12.00;;
45318;SDS011;31057;48.498;32.260;2024-03-22T11:26:53;16.58;;;12.43;;
45318;SDS011;31057;48.498;32.260;2024-03-22T11:28:54;19.35;;;11.85;;
45318;SDS011;31057;48.498;32.260;2024-03-22T11:30:56;17.37;;;11.70;;
45318;SDS011;31057;48.498;32.260;2024-03-22T11:32:57;17.85;;;12.10;;
45318;SDS011;31057;48.498;32.260;2024-03-22T11:34:58;18.57;;;11.00;;
45318;SDS011;31057;48.498;32.260;2024-03-22T11:37:00;18.38;;;11.82;;
45318;SDS011;31057;48.498;32.260;2024-03-22T11:39:00;20.88;;;13.50;;
45318;SDS011;31057;48.498;32.260;2024-03-22T11:41:04;19.20;;;11.35;;
45318;SDS011;31057;48.498;32.260;2024-03-22T11:43:06;16.80;;;11.38;;
45318;SDS011;31057;48.498;32.260;2024-03-22T11:45:10;15.67;;;11.03;;
45318;SDS011;31057;48.498;32.260;2024-03-22T11:47:13;18.38;;;11.07;;
45318;SDS011;31057;48.498;32.260;2024-03-22T11:49:14;22.52;;;12.13;;
45318;SDS011;31057;48.498;32.260;2024-03-22T11:51:15;18.10;;;10.50;;
45318;SDS011;31057;48.498;32.260;2024-03-22T11:53:17;16.95;;;11.80;;
45318;SDS011;31057;48.498;32.260;2024-03-22T11:55:18;16.40;;;11.02;;
45318;SDS011;31057;48.498;32.260;2024-03-22T11:57:21;22.25;;;12.38;;
45318;SDS011;31057;48.498;32.260;2024-03-22T11:59:23;16.77;;;12.10;;
45318;SDS011;31057;48.498;32.260;2024-03-22T12:01:24;15.20;;;10.98;;
45318;SDS011;31057;48.498;32.260;2024-03-22T12:03:25;19.95;;;11.48;;
45318;SDS011;31057;48.498;32.260;2024-03-22T12:05:26;17.70;;;12.75;;
45318;SDS011;31057;48.498;32.260;2024-03-22T12:07:28;15.45;;;10.43;;
45318;SDS011;31057;48.498;32.260;2024-03-22T12:09:29;13.43;;;10.15;;
45318;SDS011;31057;48.498;32.260;2024-03-22T12:11:30;13.77;;;9.80;;
45318;SDS011;31057;48.498;32.260;2024-03-22T12:13:31;14.30;;;9.15;;
45318;SDS011;31057;48.498;32.260;2024-03-22T12:15:32;18.27;;;11.17;;
45318;SDS011;31057;48.498;32.260;2024-03-22T12:17:33;13.70;;;8.98;;
45318;SDS011;31057;48.498;32.260;2024-03-22T12:19:36;16.10;;;10.48;;
45318;SDS011;31057;48.498;32.260;2024-03-22T12:21:37;15.50;;;10.75;;
45318;SDS011;31057;48.498;32.260;2024-03-22T12:23:38;13.80;;;10.13;;
45318;SDS011;31057;48.498;32.260;2024-03-22T12:25:39;14.35;;;7.85;;
45318;SDS011;31057;48.498;32.260;2024-03-22T12:27:40;14.13;;;9.13;;
45318;SDS011;31057;48.498;32.260;2024-03-22T12:29:42;15.00;;;8.38;;
45318;SDS011;31057;48.498;32.260;2024-03-22T12:31:44;18.52;;;11.38;;
45318;SDS011;31057;48.498;32.260;2024-03-22T12:33:45;13.30;;;9.68;;
45318;SDS011;31057;48.498;32.260;2024-03-22T12:35:46;17.70;;;11.23;;
45318;SDS011;31057;48.498;32.260;2024-03-22T12:39:49;14.13;;;10.32;;
45318;SDS011;31057;48.498;32.260;2024-03-22T12:41:52;15.15;;;10.50;;
45318;SDS011;31057;48.498;32.260;2024-03-22T12:43:54;16.25;;;11.18;;
45318;SDS011;31057;48.498;32.260;2024-03-22T12:45:55;13.38;;;10.30;;
45318;SDS011;31057;48.498;32.260;2024-03-22T12:47:56;16.83;;;10.70;;
45318;SDS011;31057;48.498;32.260;2024-03-22T12:49:57;16.00;;;11.73;;
45318;SDS011;31057;48.498;32.260;2024-03-22T12:51:58;19.92;;;12.18;;
45318;SDS011;31057;48.498;32.260;2024-03-22T12:53:59;19.45;;;11.70;;
45318;SDS011;31057;48.498;32.260;2024-03-22T12:56:00;15.57;;;10.20;;
45318;SDS011;31057;48.498;32.260;2024-03-22T12:58:01;15.98;;;10.75;;
45318;SDS011;31057;48.498;32.260;2024-03-22T13:00:02;16.42;;;11.18;;
45318;SDS011;31057;48.498;32.260;2024-03-22T13:02:12;19.17;;;9.70;;
45318;SDS011;31057;48.498;32.260;2024-03-22T13:04:13;14.93;;;10.95;;
45318;SDS011;31057;48.498;32.260;2024-03-22T13:06:14;15.63;;;10.85;;
45318;SDS011;31057;48.498;32.260;2024-03-22T13:08:15;16.63;;;11.43;;
45318;SDS011;31057;48.498;32.260;2024-03-22T13:10:17;14.77;;;11.05;;
45318;SDS011;31057;48.498;32.260;2024-03-22T13:12:18;18.30;;;10.83;;
45318;SDS011;31057;48.498;32.260;2024-03-22T13:14:19;17.70;;;11.60;;
45318;SDS011;31057;48.498;32.260;2024-03-22T13:16:20;16.63;;;9.70;;
45318;SDS011;31057;48.498;32.260;2024-03-22T13:18:23;20.10;;;9.90;;
45318;SDS011;31057;48.498;32.260;2024-03-22T13:20:24;14.25;;;10.35;;
45318;SDS011;31057;48.498;32.260;2024-03-22T13:22:25;19.75;;;11.23;;
45318;SDS011;31057;48.498;32.260;2024-03-22T13:24:26;15.43;;;9.57;;
45318;SDS011;31057;48.498;32.260;2024-03-22T13:26:27;11.90;;;8.15;;
45318;SDS011;31057;48.498;32.260;2024-03-22T13:28:28;14.60;;;9.93;;
45318;SDS011;31057;48.498;32.260;2024-03-22T13:30:29;15.70;;;10.55;;
45318;SDS011;31057;48.498;32.260;2024-03-22T13:32:30;17.58;;;11.23;;
45318;SDS011;31057;48.498;32.260;2024-03-22T13:34:31;15.60;;;11.73;;
45318;SDS011;31057;48.498;32.260;2024-03-22T13:36:32;16.77;;;11.30;;
45318;SDS011;31057;48.498;32.260;2024-03-22T13:38:33;15.50;;;10.80;;
45318;SDS011;31057;48.498;32.260;2024-03-22T13:40:34;18.70;;;10.73;;
45318;SDS011;31057;48.498;32.260;2024-03-22T13:42:35;16.75;;;11.23;;
45318;SDS011;31057;48.498;32.260;2024-03-22T13:44:36;17.83;;;10.07;;
45318;SDS011;31057;48.498;32.260;2024-03-22T13:46:37;13.05;;;8.98;;
45318;SDS011;31057;48.498;32.260;2024-03-22T13:48:41;13.57;;;9.85;;
45318;SDS011;31057;48.498;32.260;2024-03-22T13:50:42;14.75;;;10.98;;
45318;SDS011;31057;48.498;32.260;2024-03-22T13:52:43;18.67;;;12.57;;
45318;SDS011;31057;48.498;32.260;2024-03-22T13:54:45;20.33;;;12.88;;
45318;SDS011;31057;48.498;32.260;2024-03-22T13:56:46;14.70;;;11.10;;
45318;SDS011;31057;48.498;32.260;2024-03-22T13:58:47;16.05;;;11.25;;
45318;SDS011;31057;48.498;32.260;2024-03-22T14:00:49;21.10;;;12.82;;
45318;SDS011;31057;48.498;32.260;2024-03-22T14:02:50;20.73;;;13.00;;
45318;SDS011;31057;48.498;32.260;2024-03-22T14:04:53;17.83;;;11.25;;
45318;SDS011;31057;48.498;32.260;2024-03-22T14:06:54;16.65;;;12.10;;